sensor_id;sensor_type;location;lat;lon;timestamp;P1;durP1;ratioP1;P2;durP2;ratioP2
27804;SDS011;15183;51.350;11.102;2023-02-22T00:00:56;11.10;;;7.00;;
27804;SDS011;15183;51.350;11.102;2023-02-22T00:03:30;10.20;;;6.68;;
27804;SDS011;15183;51.350;11.102;2023-02-22T00:06:00;12.15;;;7.70;;
27804;SDS011;15183;51.350;11.102;2023-02-22T00:08:30;10.35;;;6.85;;
27804;SDS011;15183;51.350;11.102;2023-02-22T00:11:02;11.95;;;6.85;;
27804;SDS011;15183;51.350;11.102;2023-02-22T00:13:35;11.10;;;6.93;;
27804;SDS011;15183;51.350;11.102;2023-02-22T00:16:03;11.15;;;7.05;;
27804;SDS011;15183;51.350;11.102;2023-02-22T00:18:30;8.70;;;5.90;;
27804;SDS011;15183;51.350;11.102;2023-02-22T00:20:58;9.88;;;6.85;;
27804;SDS011;15183;51.350;11.102;2023-02-22T00:23:26;8.45;;;5.65;;
27804;SDS011;15183;51.350;11.102;2023-02-22T00:25:55;9.27;;;6.78;;
27804;SDS011;15183;51.350;11.102;2023-02-22T00:28:24;11.38;;;6.70;;
27804;SDS011;15183;51.350;11.102;2023-02-22T00:30:50;8.23;;;5.68;;
27804;SDS011;15183;51.350;11.102;2023-02-22T00:33:19;9.30;;;5.80;;
27804;SDS011;15183;51.350;11.102;2023-02-22T00:35:45;8.50;;;6.55;;
27804;SDS011;15183;51.350;11.102;2023-02-22T00:38:13;9.27;;;6.18;;
27804;SDS011;15183;51.350;11.102;2023-02-22T00:40:42;8.80;;;5.53;;
27804;SDS011;15183;51.350;11.102;2023-02-22T00:43:09;10.15;;;6.13;;
27804;SDS011;15183;51.350;11.102;2023-02-22T00:45:36;9.38;;;5.80;;
27804;SDS011;15183;51.350;11.102;2023-02-22T00:48:03;8.90;;;6.10;;
27804;SDS011;15183;51.350;11.102;2023-02-22T00:50:32;9.85;;;6.97;;
27804;SDS011;15183;51.350;11.102;2023-02-22T00:53:00;9.73;;;6.35;;
27804;SDS011;15183;51.350;11.102;2023-02-22T00:55:29;9.82;;;6.43;;
27804;SDS011;15183;51.350;11.102;2023-02-22T00:57:58;10.68;;;7.05;;
27804;SDS011;15183;51.350;11.102;2023-02-22T01:00:27;10.45;;;6.55;;
27804;SDS011;15183;51.350;11.102;2023-02-22T01:03:02;9.85;;;7.18;;
27804;SDS011;15183;51.350;11.102;2023-02-22T01:05:33;11.30;;;7.13;;
27804;SDS011;15183;51.350;11.102;2023-02-22T01:08:00;9.27;;;6.15;;
27804;SDS011;15183;51.350;11.102;2023-02-22T01:10:29;8.95;;;6.68;;
27804;SDS011;15183;51.350;11.102;2023-02-22T01:12:56;11.15;;;7.38;;
27804;SDS011;15183;51.350;11.102;2023-02-22T01:15:25;12.02;;;6.78;;
27804;SDS011;15183;51.350;11.102;2023-02-22T01:17:55;11.25;;;7.30;;
27804;SDS011;15183;51.350;11.102;2023-02-22T01:20:24;11.90;;;7.97;;
27804;SDS011;15183;51.350;11.102;2023-02-22T01:22:53;11.48;;;6.82;;
27804;SDS011;15183;51.350;11.102;2023-02-22T01:25:24;11.30;;;7.25;;
27804;SDS011;15183;51.350;11.102;2023-02-22T01:27:53;9.02;;;6.78;;
27804;SDS011;15183;51.350;11.102;2023-02-22T01:30:22;11.18;;;7.43;;
27804;SDS011;15183;51.350;11.102;2023-02-22T01:32:52;9.18;;;5.88;;
27804;SDS011;15183;51.350;11.102;2023-02-22T01:35:21;11.52;;;7.22;;
27804;SDS011;15183;51.350;11.102;2023-02-22T01:37:52;11.00;;;7.35;;
27804;SDS011;15183;51.350;11.102;2023-02-22T01:40:20;9.80;;;7.10;;
27804;SDS011;15183;51.350;11.102;2023-02-22T01:42:58;9.43;;;6.78;;
27804;SDS011;15183;51.350;11.102;2023-02-22T01:47:56;8.95;;;5.70;;
27804;SDS011;15183;51.350;11.102;2023-02-22T01:50:31;7.72;;;5.22;;
27804;SDS011;15183;51.350;11.102;2023-02-22T01:53:01;6.68;;;5.13;;
27804;SDS011;15183;51.350;11.102;2023-02-22T01:55:30;6.50;;;4.95;;
27804;SDS011;15183;51.350;11.102;2023-02-22T01:57:58;8.15;;;6.03;;
27804;SDS011;15183;51.350;11.102;2023-02-22T02:00:24;10.13;;;7.22;;
27804;SDS011;15183;51.350;11.102;2023-02-22T02:03:03;9.77;;;6.85;;
27804;SDS011;15183;51.350;11.102;2023-02-22T02:05:39;8.00;;;6.05;;
27804;SDS011;15183;51.350;11.102;2023-02-22T02:08:14;8.63;;;5.90;;
27804;SDS011;15183;51.350;11.102;2023-02-22T02:11:18;8.48;;;5.97;;
27804;SDS011;15183;51.350;11.102;2023-02-22T02:13:51;12.13;;;5.57;;
27804;SDS011;15183;51.350;11.102;2023-02-22T02:16:20;9.52;;;5.53;;
27804;SDS011;15183;51.350;11.102;2023-02-22T02:18:58;8.25;;;5.55;;
27804;SDS011;15183;51.350;11.102;2023-02-22T02:21:31;10.30;;;5.55;;
27804;SDS011;15183;51.350;11.102;2023-02-22T02:24:56;8.13;;;5.57;;
27804;SDS011;15183;51.350;11.102;2023-02-22T02:34:30;6.18;;;4.90;;
27804;SDS011;15183;51.350;11.102;2023-02-22T02:40:07;7.55;;;5.28;;
27804;SDS011;15183;51.350;11.102;2023-02-22T02:42:52;8.35;;;5.38;;
27804;SDS011;15183;51.350;11.102;2023-02-22T02:45:57;9.70;;;5.57;;
27804;SDS011;15183;51.350;11.102;2023-02-22T02:48:31;10.18;;;5.32;;
27804;SDS011;15183;51.350;11.102;2023-02-22T02:51:02;7.57;;;5.05;;
27804;SDS011;15183;51.350;11.102;2023-02-22T02:53:35;8.55;;;5.35;;
27804;SDS011;15183;51.350;11.102;2023-02-22T02:56:05;9.00;;;5.20;;
27804;SDS011;15183;51.350;11.102;2023-02-22T02:58:32;8.73;;;5.00;;
27804;SDS011;15183;51.350;11.102;2023-02-22T03:00:59;7.90;;;4.78;;
27804;SDS011;15183;51.350;11.102;2023-02-22T03:03:46;8.25;;;5.25;;
27804;SDS011;15183;51.350;11.102;2023-02-22T03:06:35;7.68;;;5.90;;
27804;SDS011;15183;51.350;11.102;2023-02-22T03:12:13;10.25;;;5.68;;
27804;SDS011;15183;51.350;11.102;2023-02-22T03:18:01;6.55;;;4.70;;
27804;SDS011;15183;51.350;11.102;2023-02-22T03:23:24;6.63;;;4.00;;
27804;SDS011;15183;51.350;11.102;2023-02-22T03:26:03;5.07;;;3.92;;
27804;SDS011;15183;51.350;11.102;2023-02-22T03:28:36;8.25;;;4.45;;
27804;SDS011;15183;51.350;11.102;2023-02-22T03:31:07;7.82;;;5.15;;
27804;SDS011;15183;51.350;11.102;2023-02-22T03:33:54;8.45;;;5.60;;
27804;SDS011;15183;51.350;11.102;2023-02-22T03:36:52;9.82;;;6.20;;
27804;SDS011;15183;51.350;11.102;2023-02-22T03:39:28;7.35;;;5.35;;
27804;SDS011;15183;51.350;11.102;2023-02-22T03:41:57;7.97;;;5.57;;
27804;SDS011;15183;51.350;11.102;2023-02-22T03:44:33;7.00;;;5.28;;
27804;SDS011;15183;51.350;11.102;2023-02-22T03:47:05;8.80;;;5.88;;
27804;SDS011;15183;51.350;11.102;2023-02-22T03:49:50;10.68;;;6.25;;
27804;SDS011;15183;51.350;11.102;2023-02-22T03:52:40;6.72;;;5.00;;
27804;SDS011;15183;51.350;11.102;2023-02-22T03:55:09;7.03;;;5.07;;
27804;SDS011;15183;51.350;11.102;2023-02-22T03:57:37;9.75;;;5.40;;
27804;SDS011;15183;51.350;11.102;2023-02-22T04:00:09;9.80;;;5.55;;
27804;SDS011;15183;51.350;11.102;2023-02-22T04:02:41;7.25;;;5.47;;
27804;SDS011;15183;51.350;11.102;2023-02-22T04:05:08;7.38;;;5.38;;
27804;SDS011;15183;51.350;11.102;2023-02-22T04:07:34;8.57;;;4.38;;
27804;SDS011;15183;51.350;11.102;2023-02-22T04:10:01;7.22;;;5.38;;
27804;SDS011;15183;51.350;11.102;2023-02-22T04:12:28;7.40;;;5.78;;
27804;SDS011;15183;51.350;11.102;2023-02-22T04:14:54;7.97;;;5.32;;
27804;SDS011;15183;51.350;11.102;2023-02-22T04:17:21;8.43;;;5.90;;
27804;SDS011;15183;51.350;11.102;2023-02-22T04:19:47;9.20;;;5.60;;
27804;SDS011;15183;51.350;11.102;2023-02-22T04:22:13;8.05;;;4.95;;
27804;SDS011;15183;51.350;11.102;2023-02-22T04:24:40;7.47;;;5.13;;
27804;SDS011;15183;51.350;11.102;2023-02-22T04:27:06;11.40;;;5.22;;
27804;SDS011;15183;51.350;11.102;2023-02-22T04:29:33;8.98;;;5.72;;
27804;SDS011;15183;51.350;11.102;2023-02-22T04:31:59;10.27;;;6.20;;
27804;SDS011;15183;51.350;11.102;2023-02-22T04:34:25;9.85;;;6.13;;
27804;SDS011;15183;51.350;11.102;2023-02-22T04:36:52;10.10;;;5.78;;
27804;SDS011;15183;51.350;11.102;2023-02-22T04:39:18;7.30;;;5.30;;
27804;SDS011;15183;51.350;11.102;2023-02-22T04:41:45;9.25;;;5.80;;
27804;SDS011;15183;51.350;11.102;2023-02-22T04:44:12;10.35;;;5.65;;
27804;SDS011;15183;51.350;11.102;2023-02-22T04:46:38;10.52;;;6.43;;
27804;SDS011;15183;51.350;11.102;2023-02-22T04:49:05;11.10;;;7.05;;
27804;SDS011;15183;51.350;11.102;2023-02-22T04:51:31;9.57;;;6.72;;
27804;SDS011;15183;51.350;11.102;2023-02-22T04:53:58;8.70;;;5.97;;
27804;SDS011;15183;51.350;11.102;2023-02-22T04:56:24;8.00;;;5.63;;
27804;SDS011;15183;51.350;11.102;2023-02-22T04:58:50;9.27;;;6.45;;
27804;SDS011;15183;51.350;11.102;2023-02-22T05:01:17;8.93;;;5.97;;
27804;SDS011;15183;51.350;11.102;2023-02-22T05:03:43;9.73;;;6.25;;
27804;SDS011;15183;51.350;11.102;2023-02-22T05:06:10;9.05;;;5.80;;
27804;SDS011;15183;51.350;11.102;2023-02-22T05:08:37;10.23;;;6.70;;
27804;SDS011;15183;51.350;11.102;2023-02-22T05:11:03;10.90;;;6.20;;
27804;SDS011;15183;51.350;11.102;2023-02-22T05:13:30;11.93;;;7.43;;
27804;SDS011;15183;51.350;11.102;2023-02-22T05:15:56;10.18;;;6.97;;
27804;SDS011;15183;51.350;11.102;2023-02-22T05:18:23;9.80;;;6.47;;
27804;SDS011;15183;51.350;11.102;2023-02-22T05:20:49;9.65;;;6.07;;
27804;SDS011;15183;51.350;11.102;2023-02-22T05:23:16;10.90;;;7.28;;
27804;SDS011;15183;51.350;11.102;2023-02-22T05:25:43;9.95;;;7.13;;
27804;SDS011;15183;51.350;11.102;2023-02-22T05:28:11;9.50;;;6.60;;
27804;SDS011;15183;51.350;11.102;2023-02-22T05:30:39;8.98;;;6.40;;
27804;SDS011;15183;51.350;11.102;2023-02-22T05:33:06;8.95;;;6.63;;
27804;SDS011;15183;51.350;11.102;2023-02-22T05:35:34;12.73;;;7.90;;
27804;SDS011;15183;51.350;11.102;2023-02-22T05:38:02;10.27;;;6.78;;
27804;SDS011;15183;51.350;11.102;2023-02-22T05:40:29;8.68;;;6.75;;
27804;SDS011;15183;51.350;11.102;2023-02-22T05:42:57;10.35;;;7.07;;
27804;SDS011;15183;51.350;11.102;2023-02-22T05:45:25;10.23;;;6.50;;
27804;SDS011;15183;51.350;11.102;2023-02-22T05:47:53;8.60;;;6.10;;
27804;SDS011;15183;51.350;11.102;2023-02-22T05:50:20;9.40;;;6.93;;
27804;SDS011;15183;51.350;11.102;2023-02-22T05:52:47;11.75;;;7.53;;
27804;SDS011;15183;51.350;11.102;2023-02-22T05:55:16;11.68;;;7.50;;
27804;SDS011;15183;51.350;11.102;2023-02-22T05:57:44;9.20;;;6.57;;
27804;SDS011;15183;51.350;11.102;2023-02-22T06:00:15;9.05;;;6.95;;
27804;SDS011;15183;51.350;11.102;2023-02-22T06:02:55;19.27;;;8.55;;
27804;SDS011;15183;51.350;11.102;2023-02-22T06:05:23;11.25;;;8.23;;
27804;SDS011;15183;51.350;11.102;2023-02-22T06:07:50;13.60;;;8.43;;
27804;SDS011;15183;51.350;11.102;2023-02-22T06:10:17;14.98;;;9.80;;
27804;SDS011;15183;51.350;11.102;2023-02-22T06:12:45;13.18;;;8.60;;
27804;SDS011;15183;51.350;11.102;2023-02-22T06:15:16;12.88;;;8.68;;
27804;SDS011;15183;51.350;11.102;2023-02-22T06:17:45;37.72;;;23.70;;
27804;SDS011;15183;51.350;11.102;2023-02-22T06:20:13;17.38;;;10.88;;
27804;SDS011;15183;51.350;11.102;2023-02-22T06:22:42;19.85;;;11.93;;
27804;SDS011;15183;51.350;11.102;2023-02-22T06:25:12;17.50;;;10.23;;
27804;SDS011;15183;51.350;11.102;2023-02-22T06:27:41;10.35;;;7.65;;
27804;SDS011;15183;51.350;11.102;2023-02-22T06:30:09;13.65;;;8.23;;
27804;SDS011;15183;51.350;11.102;2023-02-22T06:32:36;13.80;;;8.60;;
27804;SDS011;15183;51.350;11.102;2023-02-22T06:35:03;17.55;;;8.55;;
27804;SDS011;15183;51.350;11.102;2023-02-22T06:37:30;14.32;;;9.25;;
27804;SDS011;15183;51.350;11.102;2023-02-22T06:39:57;17.65;;;10.45;;
27804;SDS011;15183;51.350;11.102;2023-02-22T06:42:23;21.83;;;12.77;;
27804;SDS011;15183;51.350;11.102;2023-02-22T06:44:50;20.33;;;12.05;;
27804;SDS011;15183;51.350;11.102;2023-02-22T06:47:16;16.38;;;11.02;;
27804;SDS011;15183;51.350;11.102;2023-02-22T06:49:43;21.98;;;12.15;;
27804;SDS011;15183;51.350;11.102;2023-02-22T06:52:09;18.33;;;12.02;;
27804;SDS011;15183;51.350;11.102;2023-02-22T06:54:36;15.07;;;10.77;;
27804;SDS011;15183;51.350;11.102;2023-02-22T06:57:03;20.65;;;12.32;;
27804;SDS011;15183;51.350;11.102;2023-02-22T06:59:30;20.33;;;13.05;;
27804;SDS011;15183;51.350;11.102;2023-02-22T07:01:56;17.38;;;10.80;;
27804;SDS011;15183;51.350;11.102;2023-02-22T07:04:23;17.25;;;11.55;;
27804;SDS011;15183;51.350;11.102;2023-02-22T07:06:50;21.92;;;13.20;;
27804;SDS011;15183;51.350;11.102;2023-02-22T07:09:17;18.83;;;12.02;;
27804;SDS011;15183;51.350;11.102;2023-02-22T07:11:43;19.10;;;12.00;;
27804;SDS011;15183;51.350;11.102;2023-02-22T07:14:10;17.90;;;10.30;;
27804;SDS011;15183;51.350;11.102;2023-02-22T07:16:36;18.60;;;9.32;;
27804;SDS011;15183;51.350;11.102;2023-02-22T07:19:02;23.40;;;14.38;;
27804;SDS011;15183;51.350;11.102;2023-02-22T07:21:29;21.58;;;13.90;;
27804;SDS011;15183;51.350;11.102;2023-02-22T07:23:56;28.25;;;18.33;;
27804;SDS011;15183;51.350;11.102;2023-02-22T07:26:24;26.05;;;15.68;;
27804;SDS011;15183;51.350;11.102;2023-02-22T07:28:51;23.90;;;14.45;;
27804;SDS011;15183;51.350;11.102;2023-02-22T07:31:17;24.30;;;12.82;;
27804;SDS011;15183;51.350;11.102;2023-02-22T07:33:44;25.77;;;14.95;;
27804;SDS011;15183;51.350;11.102;2023-02-22T07:36:12;31.00;;;18.42;;
27804;SDS011;15183;51.350;11.102;2023-02-22T07:38:43;27.70;;;16.42;;
27804;SDS011;15183;51.350;11.102;2023-02-22T07:41:10;26.00;;;15.88;;
27804;SDS011;15183;51.350;11.102;2023-02-22T07:43:36;24.65;;;15.93;;
27804;SDS011;15183;51.350;11.102;2023-02-22T07:46:03;25.73;;;15.93;;
27804;SDS011;15183;51.350;11.102;2023-02-22T07:48:30;24.52;;;13.63;;
27804;SDS011;15183;51.350;11.102;2023-02-22T07:50:57;22.92;;;13.75;;
27804;SDS011;15183;51.350;11.102;2023-02-22T07:53:27;22.48;;;13.50;;
27804;SDS011;15183;51.350;11.102;2023-02-22T07:55:58;19.65;;;12.05;;
27804;SDS011;15183;51.350;11.102;2023-02-22T07:58:27;23.67;;;12.15;;
27804;SDS011;15183;51.350;11.102;2023-02-22T08:00:56;19.63;;;11.98;;
27804;SDS011;15183;51.350;11.102;2023-02-22T08:03:24;20.83;;;12.23;;
27804;SDS011;15183;51.350;11.102;2023-02-22T08:05:52;20.75;;;11.75;;
27804;SDS011;15183;51.350;11.102;2023-02-22T08:08:21;20.25;;;12.55;;
27804;SDS011;15183;51.350;11.102;2023-02-22T08:10:48;18.98;;;10.82;;
27804;SDS011;15183;51.350;11.102;2023-02-22T08:13:16;20.08;;;11.65;;
27804;SDS011;15183;51.350;11.102;2023-02-22T08:15:44;19.65;;;11.25;;
27804;SDS011;15183;51.350;11.102;2023-02-22T08:18:13;17.67;;;10.85;;
27804;SDS011;15183;51.350;11.102;2023-02-22T08:20:42;20.58;;;11.00;;
27804;SDS011;15183;51.350;11.102;2023-02-22T08:23:12;21.13;;;11.77;;
27804;SDS011;15183;51.350;11.102;2023-02-22T08:25:40;17.50;;;10.60;;
27804;SDS011;15183;51.350;11.102;2023-02-22T08:28:08;17.15;;;10.60;;
27804;SDS011;15183;51.350;11.102;2023-02-22T08:30:38;20.13;;;11.23;;
27804;SDS011;15183;51.350;11.102;2023-02-22T08:33:07;20.40;;;10.68;;
27804;SDS011;15183;51.350;11.102;2023-02-22T08:35:35;19.17;;;10.57;;
27804;SDS011;15183;51.350;11.102;2023-02-22T08:38:02;21.30;;;11.27;;
27804;SDS011;15183;51.350;11.102;2023-02-22T08:40:32;21.45;;;11.02;;
27804;SDS011;15183;51.350;11.102;2023-02-22T08:43:02;18.45;;;11.02;;
27804;SDS011;15183;51.350;11.102;2023-02-22T08:45:29;19.15;;;11.15;;
27804;SDS011;15183;51.350;11.102;2023-02-22T08:47:57;22.60;;;11.70;;
27804;SDS011;15183;51.350;11.102;2023-02-22T08:50:28;22.45;;;12.05;;
27804;SDS011;15183;51.350;11.102;2023-02-22T08:52:58;22.00;;;11.65;;
27804;SDS011;15183;51.350;11.102;2023-02-22T08:55:28;17.52;;;10.93;;
27804;SDS011;15183;51.350;11.102;2023-02-22T08:57:58;21.77;;;10.63;;
27804;SDS011;15183;51.350;11.102;2023-02-22T09:00:27;19.60;;;10.70;;
27804;SDS011;15183;51.350;11.102;2023-02-22T09:03:04;19.67;;;11.52;;
27804;SDS011;15183;51.350;11.102;2023-02-22T09:05:34;19.55;;;11.57;;
27804;SDS011;15183;51.350;11.102;2023-02-22T09:08:00;26.20;;;14.30;;
27804;SDS011;15183;51.350;11.102;2023-02-22T09:10:28;23.17;;;12.32;;
27804;SDS011;15183;51.350;11.102;2023-02-22T09:12:57;25.42;;;14.25;;
27804;SDS011;15183;51.350;11.102;2023-02-22T09:15:25;19.38;;;10.98;;
27804;SDS011;15183;51.350;11.102;2023-02-22T09:17:52;21.50;;;11.25;;
27804;SDS011;15183;51.350;11.102;2023-02-22T09:20:19;20.52;;;10.80;;
27804;SDS011;15183;51.350;11.102;2023-02-22T09:22:48;17.85;;;10.23;;
27804;SDS011;15183;51.350;11.102;2023-02-22T09:25:15;25.77;;;14.32;;
27804;SDS011;15183;51.350;11.102;2023-02-22T09:27:48;20.50;;;11.40;;
27804;SDS011;15183;51.350;11.102;2023-02-22T09:30:19;18.80;;;11.00;;
27804;SDS011;15183;51.350;11.102;2023-02-22T09:32:58;20.90;;;12.57;;
27804;SDS011;15183;51.350;11.102;2023-02-22T09:35:27;30.02;;;17.65;;
27804;SDS011;15183;51.350;11.102;2023-02-22T09:37:57;26.98;;;17.20;;
27804;SDS011;15183;51.350;11.102;2023-02-22T09:40:25;32.17;;;18.17;;
27804;SDS011;15183;51.350;11.102;2023-02-22T09:43:08;22.02;;;12.48;;
27804;SDS011;15183;51.350;11.102;2023-02-22T09:46:06;32.33;;;11.57;;
27804;SDS011;15183;51.350;11.102;2023-02-22T09:51:52;16.63;;;9.02;;
27804;SDS011;15183;51.350;11.102;2023-02-22T09:57:09;23.37;;;11.53;;
27804;SDS011;15183;51.350;11.102;2023-02-22T10:00:06;19.52;;;11.20;;
27804;SDS011;15183;51.350;11.102;2023-02-22T10:05:51;15.40;;;9.60;;
27804;SDS011;15183;51.350;11.102;2023-02-22T10:08:26;12.70;;;7.88;;
27804;SDS011;15183;51.350;11.102;2023-02-22T10:14:02;13.77;;;8.20;;
27804;SDS011;15183;51.350;11.102;2023-02-22T10:16:55;13.65;;;8.63;;
27804;SDS011;15183;51.350;11.102;2023-02-22T10:22:02;14.95;;;8.77;;
27804;SDS011;15183;51.350;11.102;2023-02-22T10:27:35;13.67;;;7.80;;
27804;SDS011;15183;51.350;11.102;2023-02-22T10:33:20;19.00;;;12.50;;
27804;SDS011;15183;51.350;11.102;2023-02-22T10:35:51;13.35;;;8.95;;
27804;SDS011;15183;51.350;11.102;2023-02-22T10:38:26;12.88;;;8.13;;
27804;SDS011;15183;51.350;11.102;2023-02-22T10:43:38;14.00;;;8.55;;
27804;SDS011;15183;51.350;11.102;2023-02-22T10:46:07;15.23;;;9.15;;
27804;SDS011;15183;51.350;11.102;2023-02-22T10:48:39;13.07;;;8.85;;
27804;SDS011;15183;51.350;11.102;2023-02-22T10:51:09;13.00;;;8.27;;
27804;SDS011;15183;51.350;11.102;2023-02-22T10:53:36;10.95;;;7.07;;
27804;SDS011;15183;51.350;11.102;2023-02-22T10:56:08;12.18;;;7.00;;
27804;SDS011;15183;51.350;11.102;2023-02-22T10:58:56;12.75;;;7.32;;
27804;SDS011;15183;51.350;11.102;2023-02-22T11:06:40;14.63;;;7.28;;
27804;SDS011;15183;51.350;11.102;2023-02-22T11:11:47;12.27;;;7.85;;
27804;SDS011;15183;51.350;11.102;2023-02-22T11:14:31;13.27;;;7.88;;
27804;SDS011;15183;51.350;11.102;2023-02-22T11:16:58;12.00;;;7.85;;
27804;SDS011;15183;51.350;11.102;2023-02-22T11:19:27;13.00;;;8.25;;
27804;SDS011;15183;51.350;11.102;2023-02-22T11:22:12;13.95;;;8.20;;
27804;SDS011;15183;51.350;11.102;2023-02-22T11:24:51;13.05;;;9.13;;
27804;SDS011;15183;51.350;11.102;2023-02-22T11:27:25;11.02;;;7.78;;
27804;SDS011;15183;51.350;11.102;2023-02-22T11:32:52;9.63;;;7.22;;
27804;SDS011;15183;51.350;11.102;2023-02-22T11:35:55;10.02;;;7.03;;
27804;SDS011;15183;51.350;11.102;2023-02-22T11:38:37;11.32;;;8.07;;
27804;SDS011;15183;51.350;11.102;2023-02-22T11:44:01;10.82;;;7.40;;
27804;SDS011;15183;51.350;11.102;2023-02-22T11:49:20;11.57;;;7.60;;
27804;SDS011;15183;51.350;11.102;2023-02-22T11:52:01;12.50;;;8.10;;
27804;SDS011;15183;51.350;11.102;2023-02-22T12:04:21;9.73;;;6.18;;
27804;SDS011;15183;51.350;11.102;2023-02-22T12:13:52;12.88;;;6.35;;
27804;SDS011;15183;51.350;11.102;2023-02-22T12:16:55;9.45;;;6.65;;
27804;SDS011;15183;51.350;11.102;2023-02-22T12:23:03;12.07;;;7.40;;
27804;SDS011;15183;51.350;11.102;2023-02-22T12:25:39;10.20;;;6.70;;
27804;SDS011;15183;51.350;11.102;2023-02-22T12:28:19;11.55;;;6.38;;
27804;SDS011;15183;51.350;11.102;2023-02-22T12:30:54;12.18;;;7.68;;
27804;SDS011;15183;51.350;11.102;2023-02-22T12:33:27;8.57;;;6.35;;
27804;SDS011;15183;51.350;11.102;2023-02-22T12:36:00;9.43;;;6.60;;
27804;SDS011;15183;51.350;11.102;2023-02-22T12:38:34;12.13;;;6.32;;
27804;SDS011;15183;51.350;11.102;2023-02-22T12:41:14;8.05;;;6.05;;
27804;SDS011;15183;51.350;11.102;2023-02-22T12:44:23;8.45;;;6.00;;
27804;SDS011;15183;51.350;11.102;2023-02-22T12:46:59;9.70;;;6.32;;
27804;SDS011;15183;51.350;11.102;2023-02-22T12:49:40;8.77;;;6.32;;
27804;SDS011;15183;51.350;11.102;2023-02-22T12:55:09;9.63;;;6.10;;
27804;SDS011;15183;51.350;11.102;2023-02-22T13:01:02;12.48;;;7.47;;
27804;SDS011;15183;51.350;11.102;2023-02-22T13:03:37;10.02;;;7.20;;
27804;SDS011;15183;51.350;11.102;2023-02-22T13:11:51;9.23;;;7.10;;
27804;SDS011;15183;51.350;11.102;2023-02-22T13:22:59;11.90;;;8.02;;
27804;SDS011;15183;51.350;11.102;2023-02-22T13:28:54;10.90;;;7.20;;
27804;SDS011;15183;51.350;11.102;2023-02-22T13:31:46;10.65;;;7.90;;
27804;SDS011;15183;51.350;11.102;2023-02-22T13:34:20;12.57;;;7.10;;
27804;SDS011;15183;51.350;11.102;2023-02-22T13:37:09;12.18;;;7.82;;
27804;SDS011;15183;51.350;11.102;2023-02-22T13:40:41;10.85;;;7.47;;
27804;SDS011;15183;51.350;11.102;2023-02-22T13:44:09;10.00;;;6.90;;
27804;SDS011;15183;51.350;11.102;2023-02-22T13:49:51;12.90;;;7.55;;
27804;SDS011;15183;51.350;11.102;2023-02-22T13:52:58;11.55;;;8.15;;
27804;SDS011;15183;51.350;11.102;2023-02-22T13:55:34;10.93;;;7.68;;
27804;SDS011;15183;51.350;11.102;2023-02-22T13:58:05;9.82;;;7.07;;
27804;SDS011;15183;51.350;11.102;2023-02-22T14:13:26;11.48;;;8.27;;
27804;SDS011;15183;51.350;11.102;2023-02-22T14:21:11;10.25;;;7.68;;
27804;SDS011;15183;51.350;11.102;2023-02-22T14:23:41;11.32;;;7.38;;
27804;SDS011;15183;51.350;11.102;2023-02-22T14:28:55;10.60;;;7.28;;
27804;SDS011;15183;51.350;11.102;2023-02-22T14:34:20;9.63;;;6.45;;
27804;SDS011;15183;51.350;11.102;2023-02-22T14:39:56;10.32;;;6.60;;
27804;SDS011;15183;51.350;11.102;2023-02-22T14:43:21;11.02;;;7.15;;
27804;SDS011;15183;51.350;11.102;2023-02-22T14:45:39;10.23;;;6.72;;
27804;SDS011;15183;51.350;11.102;2023-02-22T14:51:24;11.52;;;6.82;;
27804;SDS011;15183;51.350;11.102;2023-02-22T14:54:08;8.43;;;5.90;;
27804;SDS011;15183;51.350;11.102;2023-02-22T14:57:01;7.82;;;6.05;;
27804;SDS011;15183;51.350;11.102;2023-02-22T14:59:59;12.15;;;7.68;;
27804;SDS011;15183;51.350;11.102;2023-02-22T15:02:46;12.75;;;9.27;;
27804;SDS011;15183;51.350;11.102;2023-02-22T15:05:14;16.88;;;11.25;;
27804;SDS011;15183;51.350;11.102;2023-02-22T15:07:50;19.63;;;15.20;;
27804;SDS011;15183;51.350;11.102;2023-02-22T15:13:19;11.68;;;9.25;;
27804;SDS011;15183;51.350;11.102;2023-02-22T15:15:53;12.85;;;8.70;;
27804;SDS011;15183;51.350;11.102;2023-02-22T15:18:27;12.00;;;8.68;;
27804;SDS011;15183;51.350;11.102;2023-02-22T15:21:07;13.43;;;8.63;;
27804;SDS011;15183;51.350;11.102;2023-02-22T15:23:47;14.40;;;9.25;;
27804;SDS011;15183;51.350;11.102;2023-02-22T15:26:20;10.88;;;7.80;;
27804;SDS011;15183;51.350;11.102;2023-02-22T15:28:54;14.85;;;8.55;;
27804;SDS011;15183;51.350;11.102;2023-02-22T15:31:28;11.48;;;8.02;;
27804;SDS011;15183;51.350;11.102;2023-02-22T15:36:37;13.00;;;8.15;;
27804;SDS011;15183;51.350;11.102;2023-02-22T15:39:03;12.18;;;8.75;;
27804;SDS011;15183;51.350;11.102;2023-02-22T15:41:33;12.00;;;9.00;;
27804;SDS011;15183;51.350;11.102;2023-02-22T15:44:02;12.10;;;8.95;;
27804;SDS011;15183;51.350;11.102;2023-02-22T15:46:37;15.35;;;10.38;;
27804;SDS011;15183;51.350;11.102;2023-02-22T15:51:40;16.13;;;10.85;;
27804;SDS011;15183;51.350;11.102;2023-02-22T15:54:11;13.48;;;9.35;;
27804;SDS011;15183;51.350;11.102;2023-02-22T15:56:48;15.35;;;10.73;;
27804;SDS011;15183;51.350;11.102;2023-02-22T15:59:20;39.78;;;21.40;;
27804;SDS011;15183;51.350;11.102;2023-02-22T16:01:53;41.90;;;23.35;;
27804;SDS011;15183;51.350;11.102;2023-02-22T16:04:23;50.72;;;26.60;;
27804;SDS011;15183;51.350;11.102;2023-02-22T16:07:07;48.60;;;25.48;;
27804;SDS011;15183;51.350;11.102;2023-02-22T16:09:45;19.52;;;13.20;;
27804;SDS011;15183;51.350;11.102;2023-02-22T16:14:46;17.13;;;11.43;;
27804;SDS011;15183;51.350;11.102;2023-02-22T16:19:51;17.42;;;11.15;;
27804;SDS011;15183;51.350;11.102;2023-02-22T16:22:28;11.27;;;8.27;;
27804;SDS011;15183;51.350;11.102;2023-02-22T16:28:01;10.48;;;7.40;;
27804;SDS011;15183;51.350;11.102;2023-02-22T16:30:55;13.00;;;8.90;;
27804;SDS011;15183;51.350;11.102;2023-02-22T16:33:22;13.55;;;9.25;;
27804;SDS011;15183;51.350;11.102;2023-02-22T16:35:49;15.05;;;10.45;;
27804;SDS011;15183;51.350;11.102;2023-02-22T16:38:18;16.58;;;10.00;;
27804;SDS011;15183;51.350;11.102;2023-02-22T16:43:21;16.08;;;10.25;;
27804;SDS011;15183;51.350;11.102;2023-02-22T16:45:57;14.93;;;10.40;;
27804;SDS011;15183;51.350;11.102;2023-02-22T16:48:29;13.35;;;10.30;;
27804;SDS011;15183;51.350;11.102;2023-02-22T16:53:54;14.80;;;11.38;;
27804;SDS011;15183;51.350;11.102;2023-02-22T16:56:27;14.90;;;10.73;;
27804;SDS011;15183;51.350;11.102;2023-02-22T16:58:55;19.98;;;13.38;;
27804;SDS011;15183;51.350;11.102;2023-02-22T17:01:25;19.67;;;11.43;;
27804;SDS011;15183;51.350;11.102;2023-02-22T17:03:51;15.98;;;11.68;;
27804;SDS011;15183;51.350;11.102;2023-02-22T17:06:18;17.13;;;11.40;;
27804;SDS011;15183;51.350;11.102;2023-02-22T17:08:45;14.30;;;10.25;;
27804;SDS011;15183;51.350;11.102;2023-02-22T17:11:13;14.20;;;9.57;;
27804;SDS011;15183;51.350;11.102;2023-02-22T17:13:39;12.60;;;9.18;;
27804;SDS011;15183;51.350;11.102;2023-02-22T17:16:07;13.43;;;9.68;;
27804;SDS011;15183;51.350;11.102;2023-02-22T17:18:39;13.75;;;9.10;;
27804;SDS011;15183;51.350;11.102;2023-02-22T17:21:05;12.90;;;8.80;;
27804;SDS011;15183;51.350;11.102;2023-02-22T17:23:32;13.55;;;8.82;;
27804;SDS011;15183;51.350;11.102;2023-02-22T17:25:59;13.93;;;8.82;;
27804;SDS011;15183;51.350;11.102;2023-02-22T17:28:29;12.02;;;8.75;;
27804;SDS011;15183;51.350;11.102;2023-02-22T17:30:57;15.50;;;9.38;;